Time;durP1;ratioP1;P1;durP2;ratioP2;P2;SDS_P1;SDS_P2;PMS_P1;PMS_P2;Temp;Humidity;BMP_temperature;BMP_pressure;BME280_temperature;BME280_humidity;BME280_pressure;Samples;Min_cycle;Max_cycle;Signal;HPM_P1;HPM_P2
2023/12/28 00:01:38;;;;;;;5.80;3.27;;;;;;;;;;5062930;27;89120;-68
2023/12/28 00:04:06;;;;;;;6.03;3.33;;;;;;;;;;5063052;27;87631;-68
2023/12/28 00:06:46;;;;;;;4.57;2.80;;;;;;;;;;5063424;27;87394;-68
2023/12/28 00:09:17;;;;;;;7.10;3.60;;;;;;;;;;5063055;27;89630;-68
2023/12/28 00:11:50;;;;;;;5.73;3.23;;;;;;;;;;5061471;27;89375;-68
2023/12/28 00:14:18;;;;;;;7.27;3.60;;;;;;;;;;5057054;27;89740;-67
2023/12/28 00:16:46;;;;;;;5.00;2.93;;;;;;;;;;5061783;27;87964;-68
2023/12/28 00:19:15;;;;;;;3.63;2.40;;;;;;;;;;5062461;27;89787;-68
2023/12/28 00:21:48;;;;;;;3.93;2.70;;;;;;;;;;5062586;27;88356;-67
2023/12/28 00:24:22;;;;;;;3.03;2.23;;;;;;;;;;5060283;27;88717;-67
2023/12/28 00:26:53;;;;;;;4.07;2.10;;;;;;;;;;5059459;27;87690;-68
2023/12/28 00:29:22;;;;;;;4.63;2.67;;;;;;;;;;5062048;27;88633;-67
2023/12/28 00:31:50;;;;;;;4.03;2.80;;;;;;;;;;5061665;27;89021;-67
2023/12/28 00:34:20;;;;;;;4.73;2.17;;;;;;;;;;5062476;27;88870;-68
2023/12/28 00:36:51;;;;;;;3.10;1.60;;;;;;;;;;5061835;27;87667;-67
2023/12/28 00:39:25;;;;;;;2.13;1.83;;;;;;;;;;5060649;27;89498;-67
2023/12/28 00:41:54;;;;;;;3.30;2.07;;;;;;;;;;5060874;27;90067;-67
2023/12/28 00:44:22;;;;;;;6.03;2.40;;;;;;;;;;5061375;27;89900;-67
2023/12/28 00:46:50;;;;;;;2.33;1.83;;;;;;;;;;5062180;27;87588;-66
2023/12/28 00:49:18;;;;;;;2.80;2.37;;;;;;;;;;5062387;27;90906;-66
2023/12/28 00:51:47;;;;;;;2.10;1.47;;;;;;;;;;5062227;27;89043;-66
2023/12/28 00:54:21;;;;;;;3.00;2.03;;;;;;;;;;5061951;27;89006;-67
2023/12/28 00:56:51;;;;;;;4.33;1.77;;;;;;;;;;5062220;27;87565;-67
2023/12/28 00:59:23;;;;;;;3.30;2.37;;;;;;;;;;5059166;27;89756;-67
2023/12/28 01:01:51;;;;;;;1.97;1.67;;;;;;;;;;5061276;27;88837;-68
2023/12/28 01:04:25;;;;;;;3.17;2.10;;;;;;;;;;5059433;27;88819;-67
2023/12/28 01:06:55;;;;;;;2.60;2.10;;;;;;;;;;5061220;27;87957;-68
2023/12/28 01:09:25;;;;;;;4.37;2.30;;;;;;;;;;5061746;27;89796;-67
2023/12/28 01:11:58;;;;;;;5.27;3.40;;;;;;;;;;5061438;27;89189;-68
2023/12/28 01:14:28;;;;;;;4.40;2.10;;;;;;;;;;5059432;27;88979;-67
2023/12/28 01:17:00;;;;;;;5.27;2.53;;;;;;;;;;5059227;27;89013;-67
2023/12/28 01:19:30;;;;;;;5.77;2.57;;;;;;;;;;5061975;27;89337;-68
2023/12/28 01:22:00;;;;;;;4.07;2.40;;;;;;;;;;5060934;27;89226;-67
2023/12/28 01:24:35;;;;;;;4.73;2.33;;;;;;;;;;5061586;27;88955;-67
2023/12/28 01:27:03;;;;;;;5.33;2.67;;;;;;;;;;5061644;27;87618;-67
2023/12/28 01:29:35;;;;;;;3.63;2.83;;;;;;;;;;5061620;27;92343;-67
2023/12/28 01:32:04;;;;;;;3.50;1.97;;;;;;;;;;5060792;27;90077;-67
2023/12/28 01:34:33;;;;;;;2.73;1.70;;;;;;;;;;5061422;27;89833;-67
2023/12/28 01:37:02;;;;;;;4.17;2.10;;;;;;;;;;5060840;27;87696;-67
2023/12/28 01:39:32;;;;;;;2.43;1.73;;;;;;;;;;5061303;27;89599;-67
2023/12/28 01:42:00;;;;;;;2.20;1.77;;;;;;;;;;5060488;27;89042;-67
2023/12/28 01:44:32;;;;;;;3.07;2.10;;;;;;;;;;5061266;27;88862;-67
2023/12/28 01:47:01;;;;;;;2.80;2.00;;;;;;;;;;5061119;27;87600;-67
2023/12/28 01:49:29;;;;;;;3.03;1.73;;;;;;;;;;5061825;27;89565;-67
2023/12/28 01:52:01;;;;;;;6.93;2.07;;;;;;;;;;5061296;27;88014;-67
2023/12/28 01:54:31;;;;;;;1.93;1.57;;;;;;;;;;5059129;27;88482;-67
2023/12/28 01:57:00;;;;;;;2.33;1.70;;;;;;;;;;5061048;27;87956;-67
2023/12/28 01:59:28;;;;;;;4.90;1.63;;;;;;;;;;5058609;27;89541;-67
2023/12/28 02:01:56;;;;;;;3.93;1.40;;;;;;;;;;5060823;27;89604;-67
2023/12/28 02:04:28;;;;;;;1.83;1.60;;;;;;;;;;5060932;27;88982;-67
2023/12/28 02:06:57;;;;;;;3.67;1.87;;;;;;;;;;5061281;27;87480;-67
2023/12/28 02:09:26;;;;;;;2.43;1.83;;;;;;;;;;5057954;27;88555;-67
2023/12/28 02:11:56;;;;;;;1.70;1.07;;;;;;;;;;5059910;27;89177;-67
2023/12/28 02:14:24;;;;;;;4.07;1.30;;;;;;;;;;5060854;27;88725;-67
2023/12/28 02:16:57;;;;;;;2.43;1.10;;;;;;;;;;5060682;27;87635;-67
2023/12/28 02:19:35;;;;;;;1.83;1.63;;;;;;;;;;5061179;27;89800;-67
2023/12/28 02:22:04;;;;;;;1.30;1.20;;;;;;;;;;5059692;27;90242;-67
2023/12/28 02:24:36;;;;;;;2.57;1.60;;;;;;;;;;5061099;27;89709;-67
2023/12/28 02:27:08;;;;;;;2.27;1.20;;;;;;;;;;5060894;27;87595;-67
2023/12/28 02:29:43;;;;;;;1.90;1.50;;;;;;;;;;5060772;27;89622;-67
2023/12/28 02:32:11;;;;;;;3.03;1.67;;;;;;;;;;5060757;27;89245;-67
2023/12/28 02:34:39;;;;;;;2.60;1.33;;;;;;;;;;5060861;27;91209;-67
2023/12/28 02:37:08;;;;;;;2.60;1.20;;;;;;;;;;5058050;27;88038;-67
2023/12/28 02:39:36;;;;;;;1.27;0.90;;;;;;;;;;5061210;27;89602;-67
2023/12/28 02:42:09;;;;;;;1.87;1.27;;;;;;;;;;5059261;27;88156;-67
2023/12/28 02:44:38;;;;;;;1.83;1.23;;;;;;;;;;5060548;27;88567;-67
2023/12/28 02:47:07;;;;;;;2.50;1.60;;;;;;;;;;5059698;27;88119;-67
2023/12/28 02:49:35;;;;;;;2.40;1.87;;;;;;;;;;5060690;27;89770;-67
2023/12/28 02:52:04;;;;;;;1.17;1.17;;;;;;;;;;5059045;27;89245;-67
2023/12/28 02:54:34;;;;;;;3.50;1.50;;;;;;;;;;5059401;27;88931;-67
2023/12/28 02:57:07;;;;;;;2.63;1.37;;;;;;;;;;5059194;27;87891;-67
2023/12/28 02:59:36;;;;;;;1.90;1.20;;;;;;;;;;5059628;27;89655;-67
2023/12/28 03:02:05;;;;;;;2.13;1.40;;;;;;;;;;5059558;27;89133;-67
2023/12/28 03:04:33;;;;;;;3.00;1.17;;;;;;;;;;5059993;27;87626;-67
2023/12/28 03:07:01;;;;;;;1.80;1.27;;;;;;;;;;5060230;27;87593;-67
2023/12/28 03:09:30;;;;;;;1.00;0.83;;;;;;;;;;5060455;27;89638;-67
2023/12/28 03:12:04;;;;;;;6.30;1.53;;;;;;;;;;5058399;27;90154;-67
2023/12/28 03:14:34;;;;;;;1.47;1.37;;;;;;;;;;5055481;27;89727;-67
2023/12/28 03:17:09;;;;;;;1.50;1.10;;;;;;;;;;5050628;27;87672;-67
2023/12/28 03:19:39;;;;;;;1.80;1.20;;;;;;;;;;5059603;27;89590;-67
2023/12/28 03:22:10;;;;;;;2.63;1.37;;;;;;;;;;5056373;27;89175;-67
2023/12/28 03:24:39;;;;;;;0.87;0.60;;;;;;;;;;5058491;27;88736;-67
2023/12/28 03:27:09;;;;;;;0.87;0.60;;;;;;;;;;5056921;27;87401;-67
2023/12/28 03:29:38;;;;;;;0.50;0.50;;;;;;;;;;5059035;27;89767;-67
2023/12/28 03:32:10;;;;;;;0.50;0.50;;;;;;;;;;5056596;27;89059;-67
2023/12/28 03:34:40;;;;;;;0.83;0.83;;;;;;;;;;5058350;27;89215;-67
2023/12/28 03:37:10;;;;;;;1.77;0.97;;;;;;;;;;5056420;27;88077;-67
2023/12/28 03:39:42;;;;;;;3.37;1.00;;;;;;;;;;5059841;27;89812;-67
2023/12/28 03:42:11;;;;;;;2.27;0.97;;;;;;;;;;5056640;27;89246;-67
2023/12/28 03:44:39;;;;;;;0.60;0.60;;;;;;;;;;5055001;27;89022;-67
2023/12/28 03:47:10;;;;;;;2.30;0.80;;;;;;;;;;5057021;27;87826;-66
2023/12/28 03:49:41;;;;;;;1.27;0.97;;;;;;;;;;5054985;27;89624;-67
2023/12/28 03:52:13;;;;;;;1.70;0.83;;;;;;;;;;5054567;27;89797;-66
2023/12/28 03:54:43;;;;;;;3.13;1.00;;;;;;;;;;5056336;27;88957;-66
2023/12/28 03:57:12;;;;;;;0.63;0.50;;;;;;;;;;5055182;27;87418;-66
2023/12/28 03:59:42;;;;;;;1.90;0.80;;;;;;;;;;5055815;27;89647;-66
2023/12/28 04:02:13;;;;;;;1.03;0.53;;;;;;;;;;5054264;27;91661;-66
2023/12/28 04:04:44;;;;;;;1.30;0.90;;;;;;;;;;5057115;27;88596;-66
2023/12/28 04:07:16;;;;;;;1.20;0.53;;;;;;;;;;5060194;27;88700;-66
2023/12/28 04:09:49;;;;;;;0.67;0.67;;;;;;;;;;5059338;27;89748;-66
2023/12/28 04:12:25;;;;;;;1.00;0.43;;;;;;;;;;5058311;27;89269;-66
2023/12/28 04:14:57;;;;;;;0.60;0.60;;;;;;;;;;5059276;27;88794;-66
2023/12/28 04:17:33;;;;;;;0.60;0.40;;;;;;;;;;5058683;27;88056;-66
2023/12/28 04:20:02;;;;;;;0.80;0.77;;;;;;;;;;5059091;27;89550;-66
2023/12/28 04:22:31;;;;;;;0.40;0.40;;;;;;;;;;5059853;27;89113;-66
2023/12/28 04:25:00;;;;;;;1.43;1.07;;;;;;;;;;5059552;27;91270;-66
2023/12/28 04:27:30;;;;;;;0.20;0.20;;;;;;;;;;5059679;27;87959;-66
2023/12/28 04:29:59;;;;;;;0.67;0.67;;;;;;;;;;5058985;27;90760;-66
2023/12/28 04:32:29;;;;;;;2.10;1.03;;;;;;;;;;5056659;27;89317;-66
2023/12/28 04:34:59;;;;;;;3.37;0.50;;;;;;;;;;5059108;27;88947;-66
2023/12/28 04:37:32;;;;;;;0.30;0.30;;;;;;;;;;5057156;27;87563;-66
2023/12/28 04:40:00;;;;;;;6.43;0.73;;;;;;;;;;5059771;27;88326;-66
2023/12/28 04:42:36;;;;;;;0.70;0.60;;;;;;;;;;5056505;27;87770;-66
2023/12/28 04:45:05;;;;;;;1.60;0.73;;;;;;;;;;5059731;27;88663;-66
2023/12/28 04:47:35;;;;;;;2.03;0.93;;;;;;;;;;5059557;27;87481;-67
2023/12/28 04:50:03;;;;;;;1.57;1.20;;;;;;;;;;5059869;27;89708;-66
2023/12/28 04:52:32;;;;;;;1.50;1.00;;;;;;;;;;5058463;27;90305;-66
2023/12/28 04:55:01;;;;;;;1.93;1.07;;;;;;;;;;5058684;27;89734;-66
2023/12/28 04:57:30;;;;;;;2.67;1.60;;;;;;;;;;5057167;27;89185;-66
2023/12/28 04:59:58;;;;;;;2.33;1.60;;;;;;;;;;5056710;27;88948;-66
2023/12/28 05:02:29;;;;;;;1.67;1.07;;;;;;;;;;5059253;27;87696;-67
2023/12/28 05:04:59;;;;;;;2.00;1.40;;;;;;;;;;5062318;27;88973;-67
2023/12/28 05:07:31;;;;;;;2.47;1.77;;;;;;;;;;5060799;27;87636;-67
2023/12/28 05:09:59;;;;;;;2.60;1.23;;;;;;;;;;5061821;27;89621;-66
2023/12/28 05:12:28;;;;;;;2.47;1.57;;;;;;;;;;5061791;27;89158;-66
2023/12/28 05:15:12;;;;;;;1.50;1.40;;;;;;;;;;5058797;27;88883;-66
2023/12/28 05:17:41;;;;;;;3.07;1.17;;;;;;;;;;5060035;27;88470;-67
2023/12/28 05:20:11;;;;;;;8.53;2.10;;;;;;;;;;5059711;27;90090;-67
2023/12/28 05:22:42;;;;;;;1.93;1.23;;;;;;;;;;5061560;27;89093;-66
2023/12/28 05:25:13;;;;;;;1.23;0.77;;;;;;;;;;5058976;27;87731;-67
2023/12/28 05:27:44;;;;;;;1.43;0.87;;;;;;;;;;5062201;27;87243;-68
2023/12/28 05:30:12;;;;;;;1.27;1.00;;;;;;;;;;5058916;27;89758;-67
2023/12/28 05:32:41;;;;;;;2.20;1.03;;;;;;;;;;5061607;27;89090;-67
2023/12/28 05:35:09;;;;;;;0.97;0.90;;;;;;;;;;5061457;27;89079;-67
2023/12/28 05:37:39;;;;;;;0.53;0.50;;;;;;;;;;5061836;27;88587;-66
2023/12/28 05:40:09;;;;;;;1.77;0.60;;;;;;;;;;5061511;27;89693;-66
2023/12/28 05:42:38;;;;;;;0.30;0.30;;;;;;;;;;5061019;27;91186;-66
2023/12/28 05:45:07;;;;;;;1.67;1.13;;;;;;;;;;5060665;27;90274;-66
2023/12/28 05:47:35;;;;;;;0.50;0.50;;;;;;;;;;5061742;27;87630;-66
2023/12/28 05:50:05;;;;;;;1.03;0.70;;;;;;;;;;5061137;27;89591;-66
2023/12/28 05:52:34;;;;;;;1.40;0.67;;;;;;;;;;5061205;27;89492;-66
2023/12/28 05:55:04;;;;;;;0.90;0.60;;;;;;;;;;5060983;27;88898;-66
2023/12/28 05:57:32;;;;;;;0.40;0.40;;;;;;;;;;5059494;27;87591;-66
2023/12/28 06:00:01;;;;;;;0.80;0.50;;;;;;;;;;5061273;27;89500;-66
2023/12/28 06:02:29;;;;;;;0.90;0.73;;;;;;;;;;5058815;27;89072;-66
2023/12/28 06:04:57;;;;;;;3.17;1.00;;;;;;;;;;5061227;27;88811;-66
2023/12/28 06:07:26;;;;;;;0.40;0.40;;;;;;;;;;5061218;27;87979;-66
2023/12/28 06:09:54;;;;;;;1.67;0.80;;;;;;;;;;5060662;27;89689;-66
2023/12/28 06:12:24;;;;;;;1.93;0.63;;;;;;;;;;5061225;27;89283;-66
2023/12/28 06:14:52;;;;;;;0.40;0.40;;;;;;;;;;5058559;27;88775;-66
2023/12/28 06:17:21;;;;;;;0.40;0.40;;;;;;;;;;5061053;27;87635;-66
2023/12/28 06:19:49;;;;;;;3.53;0.67;;;;;;;;;;5060528;27;89628;-66
2023/12/28 06:22:18;;;;;;;2.63;0.83;;;;;;;;;;5060722;27;89092;-66
2023/12/28 06:24:48;;;;;;;0.93;0.50;;;;;;;;;;5060715;27;88805;-66
2023/12/28 06:27:16;;;;;;;0.90;0.40;;;;;;;;;;5060874;27;87631;-66
2023/12/28 06:29:46;;;;;;;0.23;0.23;;;;;;;;;;5059241;27;89391;-66
2023/12/28 06:32:14;;;;;;;0.73;0.50;;;;;;;;;;5060645;27;90008;-66
2023/12/28 06:34:43;;;;;;;0.50;0.50;;;;;;;;;;5057669;27;89643;-66
2023/12/28 06:37:11;;;;;;;2.80;1.13;;;;;;;;;;5057361;27;87263;-66
2023/12/28 06:39:40;;;;;;;0.70;0.60;;;;;;;;;;5060672;27;89605;-66
2023/12/28 06:42:09;;;;;;;2.73;0.43;;;;;;;;;;5059861;27;88983;-66
2023/12/28 06:44:37;;;;;;;0.43;0.43;;;;;;;;;;5059316;27;88893;-66
2023/12/28 06:47:07;;;;;;;3.50;0.53;;;;;;;;;;5060829;27;87516;-66
2023/12/28 06:49:35;;;;;;;0.60;0.50;;;;;;;;;;5060699;27;89727;-66
2023/12/28 06:52:04;;;;;;;0.20;0.20;;;;;;;;;;5058793;27;88980;-66
2023/12/28 06:54:32;;;;;;;1.40;0.70;;;;;;;;;;5058309;27;87761;-66
2023/12/28 06:57:01;;;;;;;1.20;0.50;;;;;;;;;;5059473;27;89025;-66
2023/12/28 06:59:29;;;;;;;0.93;0.60;;;;;;;;;;5057101;27;90100;-66
2023/12/28 07:01:57;;;;;;;1.43;0.63;;;;;;;;;;5059554;27;89138;-66
2023/12/28 07:04:29;;;;;;;0.97;0.50;;;;;;;;;;5059895;27;89082;-66
2023/12/28 07:06:57;;;;;;;2.47;0.63;;;;;;;;;;5059774;27;87613;-66
2023/12/28 07:09:26;;;;;;;0.20;0.20;;;;;;;;;;5059721;27;89767;-66
2023/12/28 07:11:54;;;;;;;4.37;0.60;;;;;;;;;;5060768;27;88731;-67
2023/12/28 07:14:22;;;;;;;2.10;0.63;;;;;;;;;;5058416;27;88943;-66
2023/12/28 07:16:51;;;;;;;0.47;0.47;;;;;;;;;;5056530;27;87654;-66
2023/12/28 07:19:19;;;;;;;1.60;1.17;;;;;;;;;;5056595;27;89656;-66
2023/12/28 07:21:49;;;;;;;3.20;0.47;;;;;;;;;;5058612;27;90189;-66
2023/12/28 07:24:17;;;;;;;0.50;0.40;;;;;;;;;;5058332;27;89238;-66
2023/12/28 07:26:45;;;;;;;0.73;0.50;;;;;;;;;;5058859;27;87385;-66
2023/12/28 07:29:14;;;;;;;1.27;0.87;;;;;;;;;;5058476;27;91345;-65
2023/12/28 07:31:42;;;;;;;1.67;0.60;;;;;;;;;;5057178;27;89262;-65
2023/12/28 07:34:10;;;;;;;2.77;0.43;;;;;;;;;;5056022;27;88848;-65
2023/12/28 07:36:42;;;;;;;2.00;0.77;;;;;;;;;;5058107;27;87508;-65
2023/12/28 07:39:12;;;;;;;5.30;0.93;;;;;;;;;;5056043;27;89710;-65
2023/12/28 07:41:41;;;;;;;1.60;0.83;;;;;;;;;;5059269;27;89174;-66
2023/12/28 07:44:09;;;;;;;1.30;0.63;;;;;;;;;;5060353;27;88717;-65
2023/12/28 07:46:37;;;;;;;8.17;0.70;;;;;;;;;;5062822;27;87683;-65
2023/12/28 07:49:06;;;;;;;0.63;0.63;;;;;;;;;;5062793;27;89637;-65
2023/12/28 07:51:34;;;;;;;0.43;0.37;;;;;;;;;;5062148;27;89064;-65
2023/12/28 07:54:03;;;;;;;2.63;1.03;;;;;;;;;;5062141;27;89574;-65
2023/12/28 07:56:33;;;;;;;1.53;0.73;;;;;;;;;;5062899;27;87599;-66
2023/12/28 07:59:01;;;;;;;2.07;1.10;;;;;;;;;;5062994;27;89735;-66
2023/12/28 08:01:29;;;;;;;0.60;0.60;;;;;;;;;;5063197;27;89161;-67
2023/12/28 08:03:59;;;;;;;0.60;0.47;;;;;;;;;;5061995;27;87859;-66
2023/12/28 08:06:27;;;;;;;0.97;0.60;;;;;;;;;;5062797;27;87652;-67
2023/12/28 08:08:55;;;;;;;4.13;1.03;;;;;;;;;;5061785;27;89720;-67
2023/12/28 08:11:24;;;;;;;0.47;0.47;;;;;;;;;;5061145;27;90092;-67
2023/12/28 08:13:53;;;;;;;1.63;1.10;;;;;;;;;;5060205;27;89852;-67
2023/12/28 08:16:22;;;;;;;3.93;1.97;;;;;;;;;;5062282;27;87545;-67
2023/12/28 08:18:50;;;;;;;3.07;1.80;;;;;;;;;;5061556;27;88857;-67
2023/12/28 08:21:19;;;;;;;3.90;2.10;;;;;;;;;;5062418;27;89025;-67
2023/12/28 08:23:47;;;;;;;3.57;2.03;;;;;;;;;;5062122;27;88871;-67
2023/12/28 08:26:15;;;;;;;6.07;2.50;;;;;;;;;;5063179;27;89355;-65
2023/12/28 08:28:44;;;;;;;5.17;3.20;;;;;;;;;;5060344;27;89679;-67
2023/12/28 08:31:14;;;;;;;4.13;2.93;;;;;;;;;;5061446;27;89500;-66
2023/12/28 08:33:43;;;;;;;4.03;2.67;;;;;;;;;;5059136;27;88654;-66
2023/12/28 08:36:12;;;;;;;4.77;3.10;;;;;;;;;;5060324;27;89410;-66
2023/12/28 08:38:40;;;;;;;5.30;2.83;;;;;;;;;;5061679;27;89774;-66
2023/12/28 08:41:09;;;;;;;9.37;3.17;;;;;;;;;;5062129;27;89087;-66
2023/12/28 08:43:37;;;;;;;4.20;2.93;;;;;;;;;;5061660;27;89059;-66
2023/12/28 08:46:09;;;;;;;6.87;3.27;;;;;;;;;;5062116;27;87608;-66
2023/12/28 08:48:38;;;;;;;6.43;2.80;;;;;;;;;;5062514;27;88543;-67
2023/12/28 08:51:07;;;;;;;6.57;3.60;;;;;;;;;;5061015;27;89490;-66
2023/12/28 08:53:35;;;;;;;5.03;3.40;;;;;;;;;;5060070;27;88879;-66
2023/12/28 08:56:03;;;;;;;5.40;3.40;;;;;;;;;;5060130;27;87587;-66
2023/12/28 08:58:32;;;;;;;7.53;3.30;;;;;;;;;;5061468;27;89387;-66
2023/12/28 09:01:02;;;;;;;4.67;3.27;;;;;;;;;;5060367;27;88945;-66
2023/12/28 09:03:32;;;;;;;5.50;3.33;;;;;;;;;;5061612;27;89618;-66
2023/12/28 09:06:02;;;;;;;3.33;2.43;;;;;;;;;;5061153;27;87682;-66
2023/12/28 09:08:30;;;;;;;6.40;3.30;;;;;;;;;;5060458;27;88309;-66
2023/12/28 09:10:59;;;;;;;6.00;3.63;;;;;;;;;;5061663;27;89007;-66
2023/12/28 09:13:32;;;;;;;6.13;3.77;;;;;;;;;;5060178;27;88938;-66
2023/12/28 09:16:00;;;;;;;5.10;2.90;;;;;;;;;;5062110;27;87594;-66
2023/12/28 09:18:33;;;;;;;8.67;3.33;;;;;;;;;;5059230;27;89614;-66
2023/12/28 09:21:03;;;;;;;6.30;3.27;;;;;;;;;;5060093;27;88004;-67
2023/12/28 09:23:32;;;;;;;5.10;3.30;;;;;;;;;;5060612;27;91720;-67
2023/12/28 09:26:00;;;;;;;6.90;3.90;;;;;;;;;;5061192;27;88889;-67
2023/12/28 09:28:28;;;;;;;4.87;3.13;;;;;;;;;;5060606;27;89876;-67
2023/12/28 09:30:57;;;;;;;5.40;3.60;;;;;;;;;;5061005;27;89078;-67
2023/12/28 09:33:25;;;;;;;5.63;3.17;;;;;;;;;;5061477;27;88873;-69
2023/12/28 09:35:54;;;;;;;6.57;3.40;;;;;;;;;;5055585;27;91271;-67
2023/12/28 09:38:26;;;;;;;6.43;3.33;;;;;;;;;;5058484;27;89294;-66
2023/12/28 09:40:55;;;;;;;7.23;3.87;;;;;;;;;;5053762;27;88936;-67
2023/12/28 09:43:24;;;;;;;5.57;3.00;;;;;;;;;;5057524;27;88715;-67
2023/12/28 09:45:52;;;;;;;5.57;3.07;;;;;;;;;;5054611;27;87763;-67
2023/12/28 09:48:21;;;;;;;7.23;3.73;;;;;;;;;;5057024;27;89638;-67
2023/12/28 09:50:51;;;;;;;4.37;3.10;;;;;;;;;;5057581;27;90157;-67
2023/12/28 09:53:19;;;;;;;4.40;2.80;;;;;;;;;;5053109;27;89993;-67
2023/12/28 09:55:49;;;;;;;6.70;2.90;;;;;;;;;;5057059;27;87693;-67
2023/12/28 09:58:18;;;;;;;7.43;3.00;;;;;;;;;;5059657;27;91472;-67
2023/12/28 10:00:47;;;;;;;4.93;3.23;;;;;;;;;;5058840;27;88236;-66
2023/12/28 10:03:16;;;;;;;5.87;2.17;;;;;;;;;;5058403;27;87706;-66
2023/12/28 10:05:45;;;;;;;8.73;3.93;;;;;;;;;;5057719;27;87800;-67
2023/12/28 10:08:13;;;;;;;3.77;2.77;;;;;;;;;;5058881;27;89754;-67
2023/12/28 10:10:42;;;;;;;6.43;3.00;;;;;;;;;;5057718;27;89103;-67
2023/12/28 10:13:12;;;;;;;3.73;2.60;;;;;;;;;;5059653;27;88938;-67
2023/12/28 10:15:40;;;;;;;7.93;2.70;;;;;;;;;;5054374;27;89652;-67
2023/12/28 10:18:09;;;;;;;5.27;2.47;;;;;;;;;;5055398;27;88610;-67
2023/12/28 10:20:37;;;;;;;6.23;2.50;;;;;;;;;;5059795;27;87826;-67
2023/12/28 10:23:06;;;;;;;6.73;2.20;;;;;;;;;;5052816;27;88843;-68
2023/12/28 10:25:35;;;;;;;4.13;2.73;;;;;;;;;;5053380;27;87654;-68
2023/12/28 10:28:05;;;;;;;5.20;2.47;;;;;;;;;;5052202;27;88562;-68
2023/12/28 10:30:35;;;;;;;4.97;2.37;;;;;;;;;;5058304;27;89324;-68
2023/12/28 10:33:06;;;;;;;6.50;3.37;;;;;;;;;;5058064;27;88780;-69
2023/12/28 10:35:35;;;;;;;7.00;3.73;;;;;;;;;;5051454;27;89102;-68
2023/12/28 10:38:03;;;;;;;6.80;3.83;;;;;;;;;;5058860;27;89990;-67
2023/12/28 10:40:32;;;;;;;9.43;4.63;;;;;;;;;;5055795;27;90406;-69
2023/12/28 10:43:01;;;;;;;6.37;4.27;;;;;;;;;;5057401;27;92509;-67
2023/12/28 10:45:33;;;;;;;7.50;4.10;;;;;;;;;;5059062;27;88242;-71
2023/12/28 10:48:06;;;;;;;10.23;4.73;;;;;;;;;;5057236;27;89625;-69
2023/12/28 10:50:37;;;;;;;7.13;4.43;;;;;;;;;;5055820;27;88964;-69
2023/12/28 10:53:07;;;;;;;9.00;4.77;;;;;;;;;;5055645;27;88167;-68
2023/12/28 10:55:36;;;;;;;8.77;5.17;;;;;;;;;;5059096;27;87639;-69
2023/12/28 10:58:07;;;;;;;6.43;4.80;;;;;;;;;;5054709;27;89679;-71
2023/12/28 11:00:36;;;;;;;10.50;6.07;;;;;;;;;;5059548;27;89166;-70
2023/12/28 11:03:07;;;;;;;16.40;6.20;;;;;;;;;;5057014;27;88565;-67
2023/12/28 11:05:36;;;;;;;21.40;8.30;;;;;;;;;;5057695;27;88071;-68
2023/12/28 11:08:06;;;;;;;14.83;7.70;;;;;;;;;;5057450;27;89756;-69
2023/12/28 11:10:34;;;;;;;17.20;8.63;;;;;;;;;;5055413;27;89204;-73
2023/12/28 11:13:03;;;;;;;14.77;7.57;;;;;;;;;;5049639;27;89238;-70
2023/12/28 11:15:31;;;;;;;20.90;7.20;;;;;;;;;;5056952;27;87940;-67
2023/12/28 11:18:00;;;;;;;22.93;7.30;;;;;;;;;;5057192;27;89807;-68
2023/12/28 11:20:30;;;;;;;11.07;6.73;;;;;;;;;;5059355;27;89167;-73
2023/12/28 11:22:58;;;;;;;13.23;5.80;;;;;;;;;;5058471;27;89019;-73
2023/12/28 11:25:27;;;;;;;14.07;5.47;;;;;;;;;;5059238;27;87611;-71
2023/12/28 11:27:55;;;;;;;9.97;4.70;;;;;;;;;;5055380;27;89422;-74
2023/12/28 11:30:23;;;;;;;16.00;5.10;;;;;;;;;;5057521;27;89463;-67
2023/12/28 11:32:53;;;;;;;9.63;5.53;;;;;;;;;;5058714;27;91423;-72
2023/12/28 11:35:21;;;;;;;13.70;6.47;;;;;;;;;;5056767;27;88925;-68
2023/12/28 11:41:18;;;;;;;30.20;11.73;;;;;;;;;;5054062;27;89802;-68
2023/12/28 11:43:53;;;;;;;29.90;12.53;;;;;;;;;;5056412;27;89104;-66
2023/12/28 11:46:22;;;;;;;16.43;8.70;;;;;;;;;;5059381;27;87542;-66
2023/12/28 11:52:12;;;;;;;15.10;8.20;;;;;;;;;;5053081;27;87646;-69
2023/12/28 11:54:41;;;;;;;17.60;8.90;;;;;;;;;;5057601;27;87799;-68
2023/12/28 12:10:33;;;;;;;9.00;5.20;;;;;;;;;;5038165;22;87402;-72
2023/12/28 12:13:02;;;;;;;16.27;5.50;;;;;;;;;;4950073;28;89654;-71
2023/12/28 12:18:42;;;;;;;8.77;4.90;;;;;;;;;;2629962;22;88403;-67
2023/12/28 12:21:10;;;;;;;7.67;5.37;;;;;;;;;;4953697;28;89246;-64
2023/12/28 12:23:40;;;;;;;9.63;6.03;;;;;;;;;;4967933;28;89559;-64
2023/12/28 12:26:10;;;;;;;11.93;5.80;;;;;;;;;;4974817;28;89827;-64
2023/12/28 12:28:38;;;;;;;11.77;5.57;;;;;;;;;;4967491;28;89804;-64
2023/12/28 12:31:08;;;;;;;7.03;5.00;;;;;;;;;;4956270;28;88038;-64
2023/12/28 12:33:38;;;;;;;9.00;4.77;;;;;;;;;;4957645;28;89629;-65
2023/12/28 12:36:08;;;;;;;12.73;4.40;;;;;;;;;;4957205;28;89044;-65
2023/12/28 12:38:36;;;;;;;10.73;3.93;;;;;;;;;;4958533;28;89207;-64
2023/12/28 12:41:05;;;;;;;7.73;3.87;;;;;;;;;;4959098;28;87687;-65
2023/12/28 12:43:34;;;;;;;7.13;3.30;;;;;;;;;;4961831;28;89574;-64
2023/12/28 12:46:03;;;;;;;8.20;3.50;;;;;;;;;;4958093;28;88829;-64
2023/12/28 12:48:32;;;;;;;6.43;3.43;;;;;;;;;;4957179;28;88722;-65
2023/12/28 12:51:03;;;;;;;8.77;3.77;;;;;;;;;;4958146;28;88073;-64
2023/12/28 12:53:35;;;;;;;7.93;3.20;;;;;;;;;;4956341;28;89935;-64
2023/12/28 12:56:04;;;;;;;4.60;2.93;;;;;;;;;;4958864;28;89083;-64
2023/12/28 12:58:32;;;;;;;12.37;3.17;;;;;;;;;;4957695;28;90513;-65
2023/12/28 13:01:06;;;;;;;6.67;3.07;;;;;;;;;;4960737;28;87473;-64
2023/12/28 13:03:34;;;;;;;3.60;2.27;;;;;;;;;;4961322;28;89703;-65
2023/12/28 13:06:03;;;;;;;5.80;2.80;;;;;;;;;;4961419;28;89235;-64
2023/12/28 13:08:32;;;;;;;7.30;2.83;;;;;;;;;;4961274;28;87767;-64
2023/12/28 13:11:00;;;;;;;5.50;2.13;;;;;;;;;;4967072;28;88796;-64
2023/12/28 13:13:29;;;;;;;3.87;2.30;;;;;;;;;;4962231;28;89805;-64
2023/12/28 13:15:57;;;;;;;3.83;2.40;;;;;;;;;;4960873;28;90039;-64
2023/12/28 13:18:27;;;;;;;4.10;2.60;;;;;;;;;;4964449;28;88546;-64
2023/12/28 13:20:56;;;;;;;5.13;2.47;;;;;;;;;;4953139;28;87685;-64
2023/12/28 13:23:24;;;;;;;6.40;2.43;;;;;;;;;;4942238;28;89297;-64
2023/12/28 13:25:53;;;;;;;4.40;2.23;;;;;;;;;;4942462;28;89075;-64
2023/12/28 13:28:21;;;;;;;1.70;1.60;;;;;;;;;;4940860;28;88945;-64
2023/12/28 13:30:50;;;;;;;3.20;2.17;;;;;;;;;;4946834;28;87660;-64
2023/12/28 13:33:19;;;;;;;3.00;1.80;;;;;;;;;;4947112;28;89658;-63
2023/12/28 13:35:49;;;;;;;4.90;2.17;;;;;;;;;;4939909;28;89044;-63
2023/12/28 13:38:18;;;;;;;3.27;1.70;;;;;;;;;;4948332;28;88992;-64
2023/12/28 13:40:46;;;;;;;4.90;1.77;;;;;;;;;;4951119;28;88102;-64
2023/12/28 13:43:14;;;;;;;2.80;1.90;;;;;;;;;;4932736;28;89698;-64
2023/12/28 13:45:43;;;;;;;4.13;1.87;;;;;;;;;;4950676;28;88983;-64
2023/12/28 13:48:11;;;;;;;4.27;1.80;;;;;;;;;;4939685;28;88989;-64
2023/12/28 13:50:40;;;;;;;2.63;1.80;;;;;;;;;;4939102;28;87442;-63
2023/12/28 13:53:10;;;;;;;2.50;1.60;;;;;;;;;;4942497;28;89722;-64
2023/12/28 13:55:38;;;;;;;3.17;2.10;;;;;;;;;;4948035;28;88967;-64
2023/12/28 13:58:07;;;;;;;3.90;2.13;;;;;;;;;;4941850;28;89521;-64
2023/12/28 14:00:36;;;;;;;4.57;1.87;;;;;;;;;;4947261;28;88071;-64
2023/12/28 14:03:05;;;;;;;3.30;1.33;;;;;;;;;;4930510;28;89672;-65
2023/12/28 14:05:33;;;;;;;3.97;1.93;;;;;;;;;;4954538;28;90021;-66
2023/12/28 14:08:04;;;;;;;3.90;1.60;;;;;;;;;;4948664;28;89813;-66
2023/12/28 14:10:34;;;;;;;5.83;2.57;;;;;;;;;;4938627;28;87446;-65
2023/12/28 14:13:02;;;;;;;9.00;2.20;;;;;;;;;;4948303;28;89751;-65
2023/12/28 14:15:31;;;;;;;12.37;2.57;;;;;;;;;;4940166;28;88938;-65
2023/12/28 14:18:00;;;;;;;5.97;2.57;;;;;;;;;;4941892;28;88505;-65
2023/12/28 14:20:28;;;;;;;7.40;2.43;;;;;;;;;;4954062;28;87373;-65
2023/12/28 14:22:57;;;;;;;6.03;2.27;;;;;;;;;;4961185;28;89573;-65
2023/12/28 14:25:26;;;;;;;6.67;2.50;;;;;;;;;;4960903;28;87900;-66
2023/12/28 14:27:56;;;;;;;5.00;3.20;;;;;;;;;;4960749;28;88869;-65
2023/12/28 14:30:25;;;;;;;8.00;2.60;;;;;;;;;;4959109;28;88058;-65
2023/12/28 14:32:54;;;;;;;6.73;2.77;;;;;;;;;;4961523;28;89577;-65
2023/12/28 14:35:25;;;;;;;6.77;2.47;;;;;;;;;;4960687;28;89190;-65
2023/12/28 14:37:53;;;;;;;4.63;2.70;;;;;;;;;;4960598;28;89022;-65
2023/12/28 14:40:22;;;;;;;7.83;2.90;;;;;;;;;;4961247;28;87538;-65
2023/12/28 14:42:50;;;;;;;9.17;2.73;;;;;;;;;;4963756;28;89794;-65
2023/12/28 14:45:20;;;;;;;9.77;3.90;;;;;;;;;;4968777;28;89276;-63
2023/12/28 14:47:48;;;;;;;6.67;2.40;;;;;;;;;;4957307;28;89079;-65
2023/12/28 14:50:17;;;;;;;6.17;3.27;;;;;;;;;;4941717;28;87455;-64
2023/12/28 14:52:46;;;;;;;8.27;2.63;;;;;;;;;;4966720;28;89773;-64
2023/12/28 14:55:14;;;;;;;3.73;2.40;;;;;;;;;;4979716;28;90070;-65
2023/12/28 14:57:43;;;;;;;5.87;2.80;;;;;;;;;;4980177;28;89550;-65
2023/12/28 15:00:12;;;;;;;4.90;2.87;;;;;;;;;;4965919;28;87469;-65
2023/12/28 15:02:43;;;;;;;6.03;2.90;;;;;;;;;;4959889;28;89675;-65
2023/12/28 15:05:12;;;;;;;5.27;3.10;;;;;;;;;;4959990;28;88834;-65
2023/12/28 15:07:41;;;;;;;6.07;3.03;;;;;;;;;;4960579;28;89028;-65
2023/12/28 15:10:10;;;;;;;7.80;3.17;;;;;;;;;;4959896;28;87560;-65
2023/12/28 15:12:39;;;;;;;4.67;2.60;;;;;;;;;;4959390;28;89860;-66
2023/12/28 15:15:09;;;;;;;3.60;2.43;;;;;;;;;;4962742;28;88967;-66
2023/12/28 15:17:38;;;;;;;7.20;3.23;;;;;;;;;;4959538;28;89541;-66
2023/12/28 15:20:09;;;;;;;7.53;3.07;;;;;;;;;;4962697;28;88038;-64